Terminal Aerodrome Forecast
Issued by NWS

Home | Current Version | Previous Version | Text Only | Print | Product List | Glossary On
Versions: 1 2 3 4 5 6 7 8 9 10 11 12 13 14 15 16 17 18 19
000
FTUS44 KSJT 241131
TAFJCT
TAF
KJCT 241131Z 2412/2512 19008KT P6SM VCSH BKN025
     FM241300 24011KT P6SM SCT025 BKN100
     FM241700 25015G25KT P6SM SKC
     FM250000 30005KT P6SM SKC=

USA.gov is the U.S. government's official web portal to all federal, state and local government web resources and services.